createdAt,value
2019-01-11T00:01:14.943Z,7.30
2019-01-11T00:03:49.387Z,6.70
2019-01-11T00:06:24.814Z,8.83
2019-01-11T00:08:59.837Z,7.50
2019-01-11T00:11:34.871Z,7.47
2019-01-11T00:14:10.312Z,9.13
2019-01-11T00:16:45.758Z,7.53
2019-01-11T00:19:20.586Z,9.70
2019-01-11T00:21:56.642Z,7.77
2019-01-11T00:24:31.380Z,8.13
2019-01-11T00:27:05.889Z,7.93
2019-01-11T00:29:42.386Z,6.67
2019-01-11T00:32:17.595Z,8.03
2019-01-11T00:34:51.604Z,7.80
2019-01-11T00:37:27.867Z,8.47
2019-01-11T00:43:20.738Z,8.40
2019-01-11T00:45:56.590Z,11.73
2019-01-11T00:48:32.851Z,8.03
2019-01-11T00:51:08.380Z,8.40
2019-01-11T00:53:42.717Z,8.60
2019-01-11T00:56:17.748Z,9.03
2019-01-11T00:59:01.822Z,11.27
2019-01-11T01:05:04.903Z,8.03
2019-01-11T01:07:39.936Z,8.77
2019-01-11T01:10:14.766Z,7.60
2019-01-11T01:12:49.593Z,7.63
2019-01-11T01:15:23.603Z,8.90
2019-01-11T01:17:58.841Z,8.77
2019-01-11T01:20:33.261Z,7.43
2019-01-11T01:23:06.860Z,9.93
2019-01-11T01:25:42.712Z,10.70
2019-01-11T01:28:17.745Z,12.90
2019-01-11T01:30:53.599Z,7.03
2019-01-11T01:33:29.247Z,10.20
2019-01-11T01:36:03.379Z,10.03
2019-01-11T01:38:37.881Z,8.17
2019-01-11T01:41:12.709Z,7.93
2019-01-11T01:43:47.948Z,7.70
2019-01-11T01:46:22.398Z,7.43
2019-01-11T01:48:57.810Z,8.70
2019-01-11T01:51:33.866Z,7.70
2019-01-11T01:54:09.382Z,9.53
2019-01-11T01:56:42.909Z,9.47
2019-01-11T01:59:18.765Z,8.10
2019-01-11T02:01:55.846Z,9.03
2019-01-11T02:04:30.674Z,8.50
2019-01-11T02:07:06.937Z,10.63
2019-01-11T02:09:41.387Z,11.80
2019-01-11T02:12:15.390Z,14.83
2019-01-11T02:14:51.216Z,9.60
2019-01-11T02:17:27.894Z,11.90
2019-01-11T02:20:04.386Z,13.37
2019-01-11T02:22:39.594Z,13.57
2019-01-11T02:25:15.857Z,9.83
2019-01-11T02:27:50.387Z,11.00
2019-01-11T02:30:35.968Z,8.07
2019-01-11T02:36:38.251Z,11.13
2019-01-11T02:39:14.716Z,11.73
2019-01-11T02:41:50.781Z,12.43
2019-01-11T02:44:27.657Z,11.53
2019-01-11T02:47:04.730Z,13.90
2019-01-11T02:49:41.817Z,12.27
2019-01-11T02:52:16.862Z,14.47
2019-01-11T02:54:54.954Z,13.00
2019-01-11T02:57:29.402Z,12.57
2019-01-11T03:00:03.791Z,10.37
2019-01-11T03:02:39.848Z,11.40
2019-01-11T03:05:14.676Z,10.47
2019-01-11T03:07:49.915Z,11.60
2019-01-11T03:10:26.414Z,14.53
2019-01-11T03:13:00.595Z,13.30
2019-01-11T03:15:34.607Z,13.67
2019-01-11T03:18:08.614Z,13.17
2019-01-11T03:20:43.854Z,10.73
2019-01-11T03:23:18.389Z,14.53
2019-01-11T03:25:54.738Z,12.60
2019-01-11T03:28:29.394Z,12.83
2019-01-11T03:31:08.393Z,11.90
2019-01-11T03:33:43.400Z,10.57
2019-01-11T03:36:18.390Z,12.23
2019-01-11T03:38:52.773Z,12.70
2019-01-11T03:41:29.391Z,12.57
2019-01-11T03:44:04.683Z,14.47
2019-01-11T03:46:40.746Z,11.93
2019-01-11T03:49:15.398Z,12.47
2019-01-11T03:51:50.603Z,14.47
2019-01-11T03:54:24.614Z,13.17
2019-01-11T03:57:00.402Z,14.03
2019-01-11T03:59:34.682Z,12.63
2019-01-11T04:02:09.714Z,13.37
2019-01-11T04:04:46.421Z,15.07
2019-01-11T04:07:20.607Z,14.33
2019-01-11T04:09:54.611Z,14.20
2019-01-11T04:12:28.823Z,11.20
2019-01-11T04:15:04.881Z,13.50
2019-01-11T04:17:42.781Z,15.13
2019-01-11T04:20:19.864Z,13.37
2019-01-11T04:22:57.969Z,12.77
2019-01-11T04:25:39.760Z,12.57
2019-01-11T04:28:17.251Z,17.07
2019-01-11T04:30:51.672Z,15.10
2019-01-11T04:33:27.114Z,13.97
2019-01-11T04:36:09.945Z,13.03
2019-01-11T04:38:45.989Z,13.57
2019-01-11T04:41:23.394Z,11.57
2019-01-11T04:43:58.716Z,17.07
2019-01-11T04:46:39.080Z,16.83
2019-01-11T04:49:14.395Z,14.17
2019-01-11T04:51:48.935Z,13.83
2019-01-11T04:54:24.996Z,14.37
2019-01-11T04:57:00.028Z,22.00
2019-01-11T04:59:34.655Z,13.60
2019-01-11T05:02:09.398Z,12.30
2019-01-11T05:04:43.396Z,15.23
2019-01-11T05:07:18.932Z,15.43
2019-01-11T05:09:54.786Z,14.20
2019-01-11T05:12:32.278Z,14.00
2019-01-11T05:15:09.773Z,14.43
2019-01-11T05:17:44.426Z,14.57
2019-01-11T05:20:21.677Z,17.97
2019-01-11T05:22:57.403Z,12.60
2019-01-11T05:25:31.404Z,16.07
2019-01-11T05:28:08.008Z,13.03
2019-01-11T05:30:42.903Z,19.30
2019-01-11T05:33:23.612Z,16.57
2019-01-11T05:36:03.759Z,16.33
2019-01-11T05:38:38.417Z,16.73
2019-01-11T05:41:12.422Z,15.17
2019-01-11T05:43:52.955Z,17.67
2019-01-11T05:46:29.011Z,15.37
2019-01-11T05:49:05.410Z,17.93
2019-01-11T05:51:41.406Z,14.80
2019-01-11T05:54:15.412Z,18.03
2019-01-11T05:56:51.811Z,15.57
2019-01-11T05:59:31.305Z,14.80
2019-01-11T06:02:11.303Z,12.27
2019-01-11T06:04:53.702Z,15.03
2019-01-11T06:08:02.751Z,13.50
2019-01-11T06:10:39.813Z,18.70
2019-01-11T06:13:31.851Z,15.77
2019-01-11T06:16:13.027Z,14.53
2019-01-11T06:18:56.049Z,13.23
2019-01-11T06:21:32.924Z,9.73
2019-01-11T06:24:08.773Z,9.93
2019-01-11T06:26:43.807Z,15.97
2019-01-11T06:29:24.789Z,13.63
2019-01-11T06:32:03.294Z,15.03
2019-01-11T06:34:39.966Z,15.27
2019-01-11T06:37:15.820Z,13.97
2019-01-11T06:39:53.720Z,14.60
2019-01-11T06:42:29.426Z,13.43
2019-01-11T06:45:13.699Z,13.33
2019-01-11T06:47:52.362Z,14.80
2019-01-11T06:50:26.963Z,16.83
2019-01-11T06:53:03.019Z,13.67
2019-01-11T06:55:39.901Z,20.87
2019-01-11T06:58:18.365Z,13.90
2019-01-11T07:00:57.654Z,14.27
2019-01-11T07:03:42.710Z,11.67
2019-01-11T07:06:19.796Z,16.33
2019-01-11T07:08:58.312Z,14.27
2019-01-11T07:11:33.373Z,12.23
2019-01-11T07:14:11.476Z,14.37
2019-01-11T07:17:06.969Z,15.90
2019-01-11T07:19:50.200Z,15.07
2019-01-11T07:22:25.318Z,14.97
2019-01-11T07:25:01.686Z,13.37
2019-01-11T07:27:41.430Z,13.73
2019-01-11T07:30:19.848Z,15.30
2019-01-11T07:32:56.412Z,15.63
2019-01-11T07:35:48.775Z,18.70
2019-01-11T07:38:24.913Z,13.67
2019-01-11T07:41:04.053Z,12.27
2019-01-11T07:43:39.569Z,15.23
2019-01-11T07:46:18.827Z,16.00
2019-01-11T07:48:54.502Z,12.13
2019-01-11T07:51:29.528Z,11.57
2019-01-11T07:54:07.504Z,13.47
2019-01-11T07:57:10.595Z,17.00
2019-01-11T07:59:48.514Z,14.83
2019-01-11T08:02:26.100Z,16.07
2019-01-11T08:08:34.330Z,13.00
2019-01-11T08:11:14.066Z,14.87
2019-01-11T08:13:50.942Z,12.43
2019-01-11T08:20:17.564Z,10.93
2019-01-11T08:22:59.400Z,16.23
2019-01-11T08:29:05.780Z,11.07
2019-01-11T08:31:51.058Z,16.03
2019-01-11T08:34:28.136Z,15.10
2019-01-11T08:37:03.988Z,13.10
2019-01-11T08:39:43.117Z,18.20
2019-01-11T08:42:34.555Z,14.07
2019-01-11T08:45:19.985Z,16.87
2019-01-11T08:48:06.111Z,15.20
2019-01-11T08:50:46.057Z,15.23
2019-01-11T08:53:35.332Z,18.63
2019-01-11T08:56:14.149Z,18.90
2019-01-11T08:58:57.588Z,21.50
2019-01-11T09:01:39.570Z,16.93
2019-01-11T09:04:23.219Z,17.60
2019-01-11T09:07:02.140Z,17.70
2019-01-11T09:09:57.867Z,14.53
2019-01-11T09:12:44.151Z,17.53
2019-01-11T09:15:34.144Z,15.63
2019-01-11T09:18:21.869Z,15.73
2019-01-11T09:21:09.396Z,15.37
2019-01-11T09:24:11.716Z,16.47
2019-01-11T09:26:53.252Z,15.97
2019-01-11T09:29:29.634Z,16.30
2019-01-11T09:32:37.927Z,13.87
2019-01-11T09:35:13.626Z,17.87
2019-01-11T09:38:14.311Z,17.13
2019-01-11T09:40:46.390Z,14.57
2019-01-11T09:43:26.119Z,13.93
2019-01-11T09:46:03.414Z,13.70
2019-01-11T09:48:46.233Z,13.67
2019-01-11T09:51:25.144Z,18.37
2019-01-11T09:54:03.344Z,15.17
2019-01-11T09:56:41.972Z,15.97
2019-01-11T09:59:21.512Z,15.23
2019-01-11T10:02:15.186Z,18.03
2019-01-11T10:04:51.854Z,18.53
2019-01-11T10:07:33.030Z,14.63
2019-01-11T10:10:10.929Z,17.00
2019-01-11T10:12:48.552Z,15.53
2019-01-11T10:15:26.327Z,14.97
2019-01-11T10:18:04.840Z,15.33
2019-01-11T10:20:42.124Z,14.70
2019-01-11T10:23:18.182Z,15.07
2019-01-11T10:25:54.236Z,16.57
2019-01-11T10:28:29.271Z,17.77
2019-01-11T10:31:14.977Z,16.37
2019-01-11T10:33:50.192Z,13.70
2019-01-11T10:36:25.844Z,17.20
2019-01-11T10:39:08.644Z,17.77
2019-01-11T10:41:43.484Z,15.83
2019-01-11T10:44:18.637Z,16.53
2019-01-11T10:46:55.643Z,15.67
2019-01-11T10:49:29.641Z,16.07
2019-01-11T10:52:04.848Z,17.47
2019-01-11T10:54:47.054Z,15.87
2019-01-11T10:57:23.107Z,17.53
2019-01-11T11:00:02.034Z,15.63
2019-01-11T11:02:43.664Z,18.93
2019-01-11T11:05:34.626Z,17.13
2019-01-11T11:08:16.567Z,15.93
2019-01-11T11:10:57.202Z,23.03
2019-01-11T11:13:38.173Z,19.37
2019-01-11T11:16:13.635Z,18.57
2019-01-11T11:21:44.970Z,20.07
2019-01-11T11:24:25.601Z,27.07
2019-01-11T11:27:00.364Z,19.17
2019-01-11T11:29:35.663Z,22.30
2019-01-11T11:32:15.146Z,20.20
2019-01-11T11:34:50.581Z,19.53
2019-01-11T11:37:26.844Z,16.37
2019-01-11T11:40:16.214Z,19.20
2019-01-11T11:42:54.118Z,19.03
2019-01-11T11:45:30.178Z,16.03
2019-01-11T11:48:05.615Z,19.37
2019-01-11T11:50:40.854Z,20.40
2019-01-11T11:53:16.637Z,17.57
2019-01-11T11:55:52.635Z,20.63
2019-01-11T11:58:37.057Z,23.27
2019-01-11T12:04:58.589Z,17.70
2019-01-11T12:07:33.644Z,19.43
2019-01-11T12:10:08.007Z,15.87
2019-01-11T12:12:51.237Z,23.10
2019-01-11T12:15:32.213Z,18.20
2019-01-11T12:18:16.649Z,22.90
2019-01-11T12:20:52.643Z,20.07
2019-01-11T12:23:29.186Z,18.27
2019-01-11T12:26:06.064Z,28.27
2019-01-11T12:28:42.942Z,22.10
2019-01-11T12:31:20.021Z,22.10
2019-01-11T12:33:58.945Z,20.27
2019-01-11T12:36:35.208Z,21.23
2019-01-11T12:39:10.863Z,23.13
2019-01-11T12:41:57.163Z,22.10
2019-01-11T12:44:34.582Z,21.00
2019-01-11T12:47:11.112Z,23.73
2019-01-11T12:50:00.668Z,20.43
2019-01-11T12:52:37.644Z,23.20
2019-01-11T12:55:12.642Z,23.10
2019-01-11T12:57:48.244Z,23.13
2019-01-11T13:00:25.327Z,20.50
2019-01-11T13:03:07.346Z,17.70
2019-01-11T13:05:50.409Z,22.97
2019-01-11T13:08:35.216Z,20.20
2019-01-11T13:11:17.222Z,20.43
2019-01-11T13:13:51.650Z,21.00
2019-01-11T13:16:26.860Z,22.30
2019-01-11T13:19:03.123Z,20.00
2019-01-11T13:21:38.167Z,20.17
2019-01-11T13:24:13.663Z,18.23
2019-01-11T13:26:57.030Z,17.50
2019-01-11T13:29:32.267Z,16.30
2019-01-11T13:32:08.120Z,16.90
2019-01-11T13:34:42.130Z,13.40
2019-01-11T13:37:29.465Z,13.63
2019-01-11T13:40:09.419Z,15.67
2019-01-11T13:42:57.749Z,15.23
2019-01-11T13:45:36.262Z,14.80
2019-01-11T13:48:10.913Z,12.33
2019-01-11T13:50:46.122Z,14.43
2019-01-11T13:53:23.409Z,16.23
2019-01-11T13:55:57.942Z,17.87
2019-01-11T13:58:33.271Z,13.93
2019-01-11T14:01:22.341Z,18.63
2019-01-11T14:04:01.774Z,11.83
2019-01-11T14:06:36.921Z,14.87
2019-01-11T14:09:13.926Z,16.13
2019-01-11T14:11:46.917Z,13.87
2019-01-11T14:14:28.258Z,16.50
2019-01-11T14:17:02.922Z,12.53
2019-01-11T14:19:36.919Z,14.63
2019-01-11T14:22:13.897Z,16.17
2019-01-11T14:24:56.928Z,13.77
2019-01-11T14:27:48.821Z,12.70
2019-01-11T14:30:23.924Z,10.47
2019-01-11T14:33:04.414Z,10.43
2019-01-11T14:35:39.448Z,13.53
2019-01-11T14:38:22.597Z,10.93
2019-01-11T14:44:29.676Z,15.90
2019-01-11T14:47:03.926Z,14.90
2019-01-11T14:49:38.515Z,12.80
2019-01-11T14:52:13.134Z,14.90
2019-01-11T14:54:52.925Z,16.87
2019-01-11T15:01:09.838Z,15.93
2019-01-11T15:03:58.470Z,30.00
2019-01-11T15:06:33.502Z,21.30
2019-01-11T15:12:37.634Z,15.00
2019-01-11T15:15:15.547Z,20.53
2019-01-11T15:17:51.388Z,13.13
2019-01-11T15:20:26.422Z,14.63
2019-01-11T15:23:04.350Z,15.00
2019-01-11T15:25:41.406Z,16.10
2019-01-11T15:28:16.929Z,18.23
2019-01-11T15:31:14.934Z,15.97
2019-01-11T15:33:50.480Z,21.37
2019-01-11T15:36:34.324Z,17.40
2019-01-11T15:39:13.453Z,18.70
2019-01-11T15:41:48.939Z,19.87
2019-01-11T15:44:28.944Z,17.00
2019-01-11T15:47:03.944Z,16.27
2019-01-11T15:49:39.331Z,23.87
2019-01-11T15:52:14.337Z,18.17
2019-01-11T15:54:52.854Z,18.23
2019-01-11T15:57:44.944Z,20.17
2019-01-11T16:00:25.943Z,24.80
2019-01-11T16:02:59.942Z,20.57
2019-01-11T16:05:44.869Z,22.00
2019-01-11T16:08:19.567Z,20.20
2019-01-11T16:11:18.350Z,20.80
2019-01-11T16:14:25.553Z,17.83
2019-01-11T16:17:13.113Z,19.70
2019-01-11T16:19:50.635Z,21.20
2019-01-11T16:22:24.154Z,17.90
2019-01-11T16:25:05.332Z,19.23
2019-01-11T16:27:48.149Z,18.10
2019-01-11T16:30:25.435Z,19.57
2019-01-11T16:33:01.490Z,20.87
2019-01-11T16:35:35.945Z,19.93
2019-01-11T16:38:12.174Z,19.20
2019-01-11T16:40:50.950Z,23.43
2019-01-11T16:43:26.348Z,23.73
2019-01-11T16:46:02.946Z,21.87
2019-01-11T16:48:37.948Z,22.87
2019-01-11T16:51:12.485Z,23.80
2019-01-11T16:53:47.507Z,26.10
2019-01-11T16:56:23.751Z,22.23
2019-01-11T16:59:04.531Z,23.83
2019-01-11T17:01:41.195Z,28.07
2019-01-11T17:04:22.377Z,29.93
2019-01-11T17:07:03.366Z,28.17
2019-01-11T17:09:57.444Z,22.83
2019-01-11T17:12:16.948Z,25.83
2019-01-11T17:14:57.947Z,27.53
2019-01-11T17:17:32.288Z,27.13
2019-01-11T17:20:09.177Z,23.10
2019-01-11T17:22:52.961Z,25.30
2019-01-11T17:25:26.944Z,26.07
2019-01-11T17:28:01.227Z,23.07
2019-01-11T17:30:36.465Z,28.60
2019-01-11T17:33:29.320Z,28.83
2019-01-11T17:36:04.358Z,24.23
2019-01-11T17:38:39.179Z,27.83
2019-01-11T17:41:14.212Z,31.53
2019-01-11T17:43:49.657Z,27.60
2019-01-11T17:46:25.526Z,30.00
2019-01-11T17:49:01.572Z,32.43
2019-01-11T17:51:37.212Z,27.93
2019-01-11T17:54:12.452Z,28.10
2019-01-11T17:56:46.956Z,29.77
2019-01-11T17:59:21.290Z,31.83
2019-01-11T18:01:59.090Z,23.63
2019-01-11T18:04:36.580Z,28.33
2019-01-11T18:07:12.535Z,29.33
2019-01-11T18:09:53.438Z,28.03
2019-01-11T18:12:25.962Z,29.63
2019-01-11T18:14:59.958Z,29.17
2019-01-11T18:17:34.515Z,30.10
2019-01-11T18:20:11.184Z,28.87
2019-01-11T18:22:47.241Z,33.70
2019-01-11T18:25:22.480Z,39.17
2019-01-11T18:31:36.980Z,32.67
2019-01-11T18:37:40.000Z,36.93
2019-01-11T18:43:56.190Z,40.63
2019-01-11T18:46:30.192Z,37.13
2019-01-11T18:49:05.840Z,33.23
2019-01-11T18:54:54.418Z,33.70
2019-01-11T18:57:30.468Z,35.27
2019-01-11T19:00:06.327Z,36.97
2019-01-11T19:02:43.449Z,38.17
2019-01-11T19:05:18.983Z,36.60
2019-01-11T19:11:24.413Z,33.73
2019-01-11T19:24:25.022Z,35.13
2019-01-11T19:26:59.326Z,36.10
2019-01-11T19:33:01.410Z,33.10
2019-01-11T19:39:11.694Z,37.10
2019-01-11T19:45:15.209Z,34.53
2019-01-11T19:47:49.216Z,36.83
2019-01-11T19:50:29.369Z,27.80
2019-01-11T19:53:03.002Z,37.23
2019-01-11T19:55:38.226Z,30.27
2019-01-11T19:58:14.992Z,37.30
2019-01-11T20:00:50.013Z,32.10
2019-01-11T20:03:35.220Z,38.33
2019-01-11T20:06:12.014Z,37.87
2019-01-11T20:08:46.495Z,32.37
2019-01-11T20:11:25.420Z,33.93
2019-01-11T20:14:10.478Z,30.57
2019-01-11T20:16:48.062Z,40.50
2019-01-11T20:19:22.389Z,39.80
2019-01-11T20:21:57.216Z,33.70
2019-01-11T20:24:33.273Z,30.90
2019-01-11T20:27:25.719Z,35.47
2019-01-11T20:30:02.799Z,31.30
2019-01-11T20:32:44.940Z,34.70
2019-01-11T20:35:21.999Z,28.80
2019-01-11T20:37:56.710Z,34.73
2019-01-11T20:40:31.991Z,36.07
2019-01-11T20:43:09.256Z,34.23
2019-01-11T20:45:46.999Z,37.30
2019-01-11T20:48:22.784Z,33.93
2019-01-11T20:51:10.512Z,32.83
2019-01-11T20:53:45.339Z,31.80
2019-01-11T20:56:26.004Z,34.30
2019-01-11T20:59:00.523Z,29.20
2019-01-11T21:01:41.500Z,29.23
2019-01-11T21:04:16.533Z,29.27
2019-01-11T21:06:51.561Z,31.93
2019-01-11T21:09:26.398Z,28.73
2019-01-11T21:12:01.836Z,28.47
2019-01-11T21:14:39.538Z,25.50
2019-01-11T21:17:15.589Z,29.80
2019-01-11T21:19:52.466Z,27.53
2019-01-11T21:22:27.000Z,28.73
2019-01-11T21:25:03.000Z,29.47
2019-01-11T21:27:37.978Z,27.60
2019-01-11T21:30:24.478Z,29.43
2019-01-11T21:33:00.004Z,26.60
2019-01-11T21:35:46.222Z,25.40
2019-01-11T21:38:20.232Z,24.27
2019-01-11T21:40:54.999Z,27.53
2019-01-11T21:43:30.001Z,24.27
2019-01-11T21:46:03.754Z,24.13
2019-01-11T21:48:41.592Z,24.53
2019-01-11T21:51:16.419Z,26.00
2019-01-11T21:53:55.893Z,24.63
2019-01-11T21:56:35.498Z,21.53
2019-01-11T21:59:11.210Z,25.80
2019-01-11T22:01:47.233Z,22.90
2019-01-11T22:04:28.796Z,21.37
2019-01-11T22:07:04.650Z,29.40
2019-01-11T22:09:40.710Z,26.10
2019-01-11T22:12:16.759Z,20.30
2019-01-11T22:14:51.216Z,21.00
2019-01-11T22:17:26.243Z,25.30
2019-01-11T22:20:03.703Z,24.03
2019-01-11T22:22:38.765Z,20.17
2019-01-11T22:25:16.808Z,22.77
2019-01-11T22:27:52.693Z,18.67
2019-01-11T22:30:30.438Z,17.47
2019-01-11T22:33:04.231Z,15.47
2019-01-11T22:35:39.432Z,16.90
2019-01-11T22:38:13.442Z,15.87
2019-01-11T22:40:48.474Z,15.37
2019-01-11T22:43:24.539Z,13.77
2019-01-11T22:46:04.695Z,19.97
2019-01-11T22:48:46.695Z,15.87
2019-01-11T22:51:21.216Z,15.07
2019-01-11T22:53:55.727Z,14.23
2019-01-11T22:56:33.629Z,20.50
2019-01-11T22:59:13.583Z,16.53
2019-01-11T23:02:09.089Z,19.90
2019-01-11T23:05:06.302Z,25.23
2019-01-11T23:07:53.571Z,12.37
2019-01-11T23:10:54.606Z,17.17
2019-01-11T23:13:31.687Z,17.57
2019-01-11T23:16:10.817Z,12.93
2019-01-11T23:18:48.947Z,14.33
2019-01-11T23:21:26.241Z,13.80
2019-01-11T23:24:06.570Z,17.00
2019-01-11T23:26:46.727Z,15.93
2019-01-11T23:29:22.232Z,15.23
2019-01-11T23:31:56.232Z,16.20
2019-01-11T23:34:36.844Z,13.03
2019-01-11T23:37:30.390Z,13.20
2019-01-11T23:40:04.619Z,19.53
2019-01-11T23:42:43.587Z,15.97
2019-01-11T23:45:21.447Z,19.13
2019-01-11T23:48:03.446Z,18.20
2019-01-11T23:50:43.598Z,18.00
2019-01-11T23:53:18.630Z,18.40
2019-01-11T23:56:01.456Z,14.47
2019-01-11T23:58:37.501Z,14.67
